KBDL/BDL METAR and TAF weather

Enter ICAO airport designator
Station Type Date Time Source
KBDL METAR 2020/01/20 15:51 UTC NOAA

KBDL 201551Z 34012G17KT 10SM CLR M06/M16 A3024 RMK AO2 SLP243 T10561161


Station Type Date Time Source
KBDL Decoded METAR 2020/01/20 15:51 UTC NOAA

BRADLEY INTERNATIONAL AIRPORT , CT, United States (KBDL) 41-56N 072-41W 60M
Jan 20, 2020 - 10:51 AM EST / 2020.01.20 1551 UTC
Wind: from the NNW (340 degrees) at 14 MPH (12 KT) gusting to 20 MPH (17 KT):0
Visibility: 10 mile(s):0
Sky conditions: clear
Temperature: 21.9 F (-5.6 C)
Windchill: 8 F (-13 C):1
Dew Point: 3.0 F (-16.1 C)
Relative Humidity: 43%
Pressure (altimeter): 30.24 in. Hg (1024 hPa)
ob: KBDL 201551Z 34012G17KT 10SM CLR M06/M16 A3024 RMK AO2 SLP243 T10561161
cycle: 16

Station Type Date Time Source
KBDL TAF 2020/01/20 15:18 UTC NOAA

TAF
AMD KBDL 201515Z 2015/2118 34012KT P6SM SKC
FM202200 32007KT P6SM SKC
FM211400 34004KT P6SM SKC

Example: see airport list